Terminal Aerodrome Forecast
Issued by NWS

Home | Current Version | Previous Version | Text Only | Print | Product List | Glossary On
Versions: 1 2 3 4 5 6 7 8 9 10 11 12 13 14
297
FTUS44 KJAN 172331
TAFHKS
TAF
KHKS 172331Z 1800/1824 VRB03KT 2SM -DZ BR BKN003 OVC090
     FM180400 00000KT 1/4SM DZ FG BKN003 OVC050
     FM181700 10003KT 3SM BR VCSH BKN008 OVC250
     FM181900 10003KT 5SM BR VCSH BKN008 OVC250
     FM182100 00000KT P6SM VCSH BKN008 OVC050=

USA.gov is the U.S. government's official web portal to all federal, state and local government web resources and services.